createdAt,value
2023-05-12T00:00:48.312Z,0.00
2023-05-12T00:01:48.233Z,0.00
2023-05-12T00:02:48.212Z,0.00
2023-05-12T00:03:48.291Z,0.00
2023-05-12T00:04:48.010Z,0.00
2023-05-12T00:05:47.914Z,0.00
2023-05-12T00:06:47.839Z,0.00
2023-05-12T00:07:47.755Z,0.00
2023-05-12T00:08:47.690Z,0.00
2023-05-12T00:09:47.596Z,0.00
2023-05-12T00:10:47.525Z,0.00
2023-05-12T00:11:47.437Z,0.00
2023-05-12T00:12:47.629Z,0.00
2023-05-12T00:13:47.299Z,0.00
2023-05-12T00:14:47.220Z,0.00
2023-05-12T00:15:47.478Z,0.00
2023-05-12T00:16:47.198Z,0.00
2023-05-12T00:17:47.083Z,0.00
2023-05-12T00:18:46.965Z,0.00
2023-05-12T00:19:46.806Z,0.00
2023-05-12T00:20:46.728Z,0.00
2023-05-12T00:21:46.646Z,0.00
2023-05-12T00:22:46.567Z,0.00
2023-05-12T00:23:46.493Z,0.00
2023-05-12T00:24:46.408Z,0.00
2023-05-12T00:25:46.340Z,0.00
2023-05-12T00:26:46.266Z,0.00
2023-05-12T00:27:46.223Z,0.00
2023-05-12T00:28:46.095Z,0.00
2023-05-12T00:29:46.019Z,0.00
2023-05-12T00:30:45.957Z,0.00
2023-05-12T00:31:45.878Z,0.00
2023-05-12T00:32:45.865Z,0.00
2023-05-12T00:33:45.694Z,0.00
2023-05-12T00:34:45.626Z,0.00
2023-05-12T00:35:45.643Z,0.00
2023-05-12T00:36:45.461Z,0.00
2023-05-12T00:37:45.434Z,0.00
2023-05-12T00:38:45.313Z,0.00
2023-05-12T00:39:45.238Z,0.00
2023-05-12T00:40:45.220Z,0.00
2023-05-12T00:41:45.068Z,0.00
2023-05-12T00:42:44.986Z,0.00
2023-05-12T00:43:44.906Z,0.00
2023-05-12T00:44:44.828Z,0.00
2023-05-12T00:45:44.780Z,0.00
2023-05-12T00:46:44.707Z,0.00
2023-05-12T00:47:44.626Z,0.00
2023-05-12T00:48:44.509Z,0.00
2023-05-12T00:49:44.431Z,0.00
2023-05-12T00:50:44.357Z,0.00
2023-05-12T00:51:44.271Z,0.00
2023-05-12T00:52:44.194Z,0.00
2023-05-12T00:53:49.842Z,0.00
2023-05-12T00:54:44.038Z,0.00
2023-05-12T00:55:43.954Z,0.00
2023-05-12T00:56:43.879Z,0.00
2023-05-12T00:57:43.848Z,0.00
2023-05-12T00:58:43.722Z,0.00
2023-05-12T00:59:43.636Z,0.00
2023-05-12T01:00:43.561Z,0.00
2023-05-12T01:01:43.492Z,0.00
2023-05-12T01:02:43.490Z,0.00
2023-05-12T01:03:43.395Z,0.00
2023-05-12T01:04:43.245Z,0.00
2023-05-12T01:05:43.164Z,0.00
2023-05-12T01:06:43.093Z,0.00
2023-05-12T01:07:43.003Z,0.00
2023-05-12T01:08:42.936Z,0.00
2023-05-12T01:09:42.841Z,0.00
2023-05-12T01:10:42.767Z,0.00
2023-05-12T01:11:42.689Z,0.00
2023-05-12T01:12:42.610Z,0.00
2023-05-12T01:13:42.598Z,0.00
2023-05-12T01:14:42.448Z,0.00
2023-05-12T01:15:42.389Z,0.00
2023-05-12T01:16:42.336Z,0.00
2023-05-12T01:17:42.343Z,0.00
2023-05-12T01:18:42.219Z,0.00
2023-05-12T01:19:42.064Z,0.00
2023-05-12T01:20:41.976Z,0.00
2023-05-12T01:21:41.895Z,0.00
2023-05-12T01:22:41.813Z,0.00
2023-05-12T01:23:41.739Z,0.00
2023-05-12T01:24:41.656Z,0.00
2023-05-12T01:25:41.577Z,0.00
2023-05-12T01:26:41.496Z,0.00
2023-05-12T01:27:41.571Z,0.00
2023-05-12T01:28:41.337Z,0.00
2023-05-12T01:29:41.260Z,0.00
2023-05-12T01:30:41.201Z,0.00
2023-05-12T01:31:41.269Z,0.00
2023-05-12T01:32:41.045Z,0.00
2023-05-12T01:33:40.994Z,0.00
2023-05-12T01:34:40.882Z,0.00
2023-05-12T01:35:40.792Z,0.00
2023-05-12T01:36:40.704Z,0.00
2023-05-12T01:37:40.633Z,0.00
2023-05-12T01:38:40.544Z,0.00
2023-05-12T01:39:40.481Z,0.00
2023-05-12T01:40:40.386Z,0.00
2023-05-12T01:41:40.307Z,0.00
2023-05-12T01:42:40.230Z,0.00
2023-05-12T01:43:40.146Z,0.00
2023-05-12T01:44:40.067Z,0.00
2023-05-12T01:45:39.982Z,0.00
2023-05-12T01:46:39.922Z,0.00
2023-05-12T01:47:39.878Z,0.00
2023-05-12T01:48:39.748Z,0.00
2023-05-12T01:49:39.768Z,0.00
2023-05-12T01:50:39.613Z,0.00
2023-05-12T01:51:39.520Z,0.00
2023-05-12T01:52:39.689Z,0.00
2023-05-12T01:53:39.364Z,0.00
2023-05-12T01:54:39.272Z,0.00
2023-05-12T01:55:39.198Z,0.00
2023-05-12T01:56:39.115Z,0.00
2023-05-12T01:57:39.034Z,0.00
2023-05-12T01:58:38.989Z,0.00
2023-05-12T01:59:38.878Z,0.00
2023-05-12T02:00:39.149Z,0.00
2023-05-12T02:01:38.818Z,0.00
2023-05-12T02:02:39.753Z,0.00
2023-05-12T02:03:38.689Z,0.00
2023-05-12T02:04:38.491Z,0.00
2023-05-12T02:05:38.400Z,0.00
2023-05-12T02:06:38.350Z,0.00
2023-05-12T02:07:38.239Z,0.00
2023-05-12T02:08:38.160Z,0.00
2023-05-12T02:09:38.078Z,0.00
2023-05-12T02:10:37.998Z,0.00
2023-05-12T02:11:37.977Z,0.00
2023-05-12T02:12:37.930Z,0.00
2023-05-12T02:13:38.027Z,0.00
2023-05-12T02:14:37.701Z,0.00
2023-05-12T02:15:37.605Z,0.00
2023-05-12T02:16:37.724Z,0.00
2023-05-12T02:17:37.464Z,0.00
2023-05-12T02:18:37.443Z,0.00
2023-05-12T02:19:37.287Z,0.00
2023-05-12T02:20:37.213Z,0.00
2023-05-12T02:21:37.128Z,0.00
2023-05-12T02:22:37.064Z,0.00
2023-05-12T02:23:36.970Z,0.00
2023-05-12T02:24:36.896Z,0.00
2023-05-12T02:25:36.811Z,0.00
2023-05-12T02:26:36.985Z,0.00
2023-05-12T02:27:36.651Z,0.00
2023-05-12T02:28:36.576Z,0.00
2023-05-12T02:29:36.495Z,0.00
2023-05-12T02:30:36.416Z,0.00
2023-05-12T02:31:36.364Z,0.00
2023-05-12T02:32:36.325Z,0.00
2023-05-12T02:33:36.178Z,0.00
2023-05-12T02:34:36.096Z,0.00
2023-05-12T02:35:36.014Z,0.00
2023-05-12T02:36:36.191Z,0.00
2023-05-12T02:37:35.862Z,0.00
2023-05-12T02:38:35.802Z,0.00
2023-05-12T02:39:35.709Z,0.00
2023-05-12T02:40:35.622Z,0.00
2023-05-12T02:41:35.540Z,0.00
2023-05-12T02:42:35.675Z,0.00
2023-05-12T02:43:35.386Z,0.00
2023-05-12T02:44:35.362Z,0.00
2023-05-12T02:45:35.254Z,0.00
2023-05-12T02:46:35.146Z,0.00
2023-05-12T02:47:35.096Z,0.00
2023-05-12T02:48:34.990Z,0.00
2023-05-12T02:49:34.910Z,0.00
2023-05-12T02:50:34.836Z,0.00
2023-05-12T02:51:34.755Z,0.00
2023-05-12T02:52:34.674Z,0.00
2023-05-12T02:53:34.597Z,0.00
2023-05-12T02:54:34.662Z,0.00
2023-05-12T02:55:34.436Z,0.00
2023-05-12T02:56:34.361Z,0.00
2023-05-12T02:57:34.397Z,0.00
2023-05-12T02:58:34.199Z,0.00
2023-05-12T02:59:34.124Z,0.00
2023-05-12T03:00:34.040Z,0.00
2023-05-12T03:01:33.992Z,0.00
2023-05-12T03:02:34.016Z,0.00
2023-05-12T03:03:34.283Z,0.00
2023-05-12T03:04:33.729Z,0.00
2023-05-12T03:05:33.656Z,0.00
2023-05-12T03:06:33.568Z,0.00
2023-05-12T03:07:33.958Z,0.00
2023-05-12T03:08:33.404Z,0.00
2023-05-12T03:09:33.327Z,0.00
2023-05-12T03:10:33.518Z,0.00
2023-05-12T03:11:33.421Z,0.00
2023-05-12T03:12:33.091Z,0.00
2023-05-12T03:13:33.011Z,0.00
2023-05-12T03:14:32.937Z,0.00
2023-05-12T03:15:32.852Z,0.00
2023-05-12T03:16:32.818Z,0.00
2023-05-12T03:17:32.725Z,0.00
2023-05-12T03:18:32.681Z,4.00
2023-05-12T03:19:32.536Z,4.00
2023-05-12T03:20:32.463Z,4.00
2023-05-12T03:21:32.383Z,0.00
2023-05-12T03:22:32.296Z,0.00
2023-05-12T03:23:32.235Z,4.00
2023-05-12T03:24:32.138Z,4.00
2023-05-12T03:25:32.057Z,4.00
2023-05-12T03:26:32.051Z,8.00
2023-05-12T03:27:31.902Z,4.00
2023-05-12T03:28:31.817Z,8.00
2023-05-12T03:29:31.758Z,8.00
2023-05-12T03:30:31.658Z,12.00
2023-05-12T03:31:31.628Z,12.00
2023-05-12T03:32:31.575Z,12.00
2023-05-12T03:33:31.419Z,16.00
2023-05-12T03:34:31.337Z,16.00
2023-05-12T03:35:31.262Z,20.00
2023-05-12T03:36:31.182Z,20.00
2023-05-12T03:37:31.105Z,24.00
2023-05-12T03:38:31.303Z,28.00
2023-05-12T03:39:30.941Z,32.00
2023-05-12T03:40:30.861Z,32.00
2023-05-12T03:41:30.781Z,36.00
2023-05-12T03:42:30.739Z,44.00
2023-05-12T03:43:30.625Z,48.00
2023-05-12T03:44:30.643Z,48.00
2023-05-12T03:45:30.468Z,56.00
2023-05-12T03:46:30.439Z,56.00
2023-05-12T03:47:30.621Z,60.00
2023-05-12T03:48:30.283Z,60.00
2023-05-12T03:49:30.149Z,64.00
2023-05-12T03:50:30.065Z,68.00
2023-05-12T03:51:29.998Z,76.00
2023-05-12T03:52:29.907Z,76.00
2023-05-12T03:53:29.829Z,80.00
2023-05-12T03:54:29.748Z,88.00
2023-05-12T03:55:29.672Z,80.00
2023-05-12T03:56:29.788Z,88.00
2023-05-12T03:57:29.538Z,104.00
2023-05-12T03:58:29.469Z,116.00
2023-05-12T03:59:29.353Z,124.00
2023-05-12T04:00:29.270Z,136.00
2023-05-12T04:01:29.197Z,156.00
2023-05-12T04:02:29.147Z,180.00
2023-05-12T04:03:29.109Z,188.00
2023-05-12T04:04:28.960Z,172.00
2023-05-12T04:05:28.875Z,164.00
2023-05-12T04:06:28.796Z,184.00
2023-05-12T04:07:28.718Z,184.00
2023-05-12T04:08:28.649Z,180.00
2023-05-12T04:09:28.805Z,200.00
2023-05-12T04:10:28.477Z,216.00
2023-05-12T04:11:28.401Z,208.00
2023-05-12T04:12:28.328Z,220.00
2023-05-12T04:13:28.238Z,248.00
2023-05-12T04:14:39.144Z,228.00
2023-05-12T04:15:28.094Z,252.00
2023-05-12T04:16:28.034Z,244.00
2023-05-12T04:17:27.962Z,236.00
2023-05-12T04:18:27.890Z,268.00
2023-05-12T04:19:27.764Z,268.00
2023-05-12T04:20:28.033Z,288.00
2023-05-12T04:21:27.606Z,316.00
2023-05-12T04:22:27.526Z,348.00
2023-05-12T04:23:27.456Z,372.00
2023-05-12T04:24:27.369Z,376.00
2023-05-12T04:25:27.287Z,388.00
2023-05-12T04:26:27.204Z,392.00
2023-05-12T04:27:27.130Z,436.00
2023-05-12T04:28:27.049Z,492.00
2023-05-12T04:29:26.969Z,528.00
2023-05-12T04:30:26.919Z,608.00
2023-05-12T04:31:26.850Z,660.00
2023-05-12T04:32:26.761Z,688.00
2023-05-12T04:33:26.673Z,696.00
2023-05-12T04:34:26.577Z,708.00
2023-05-12T04:35:26.496Z,712.00
2023-05-12T04:36:26.415Z,724.00
2023-05-12T04:37:26.336Z,740.00
2023-05-12T04:38:26.277Z,748.00
2023-05-12T04:39:26.175Z,760.00
2023-05-12T04:40:26.099Z,764.00
2023-05-12T04:41:26.033Z,772.00
2023-05-12T04:42:25.950Z,788.00
2023-05-12T04:44:25.781Z,860.00
2023-05-12T04:45:25.698Z,916.00
2023-05-12T04:46:25.698Z,976.00
2023-05-12T04:47:25.562Z,1036.00
2023-05-12T04:48:25.465Z,1072.00
2023-05-12T04:49:25.386Z,1072.00
2023-05-12T04:50:25.299Z,1076.00
2023-05-12T04:51:25.234Z,1084.00
2023-05-12T04:52:25.148Z,1096.00
2023-05-12T04:53:25.063Z,1112.00
2023-05-12T04:54:24.984Z,1136.00
2023-05-12T04:55:24.910Z,1188.00
2023-05-12T04:56:24.827Z,1244.00
2023-05-12T04:57:25.055Z,1276.00
2023-05-12T04:58:24.689Z,1284.00
2023-05-12T04:59:24.599Z,1300.00
2023-05-12T05:00:24.508Z,1300.00
2023-05-12T05:01:24.458Z,1304.00
2023-05-12T05:02:24.520Z,1272.00
2023-05-12T05:03:24.447Z,1268.00
2023-05-12T05:04:24.191Z,1252.00
2023-05-12T05:05:24.113Z,1244.00
2023-05-12T05:06:24.029Z,1268.00
2023-05-12T05:07:23.954Z,1256.00
2023-05-12T05:08:23.873Z,1244.00
2023-05-12T05:09:23.800Z,1212.00
2023-05-12T05:10:23.713Z,1088.00
2023-05-12T05:11:23.637Z,980.00
2023-05-12T05:12:23.560Z,948.00
2023-05-12T05:13:23.478Z,956.00
2023-05-12T05:14:23.399Z,868.00
2023-05-12T05:15:23.330Z,760.00
2023-05-12T05:16:23.260Z,712.00
2023-05-12T05:17:23.191Z,636.00
2023-05-12T05:18:24.544Z,552.00
2023-05-12T05:19:35.263Z,520.00
2023-05-12T05:20:27.922Z,484.00
2023-05-12T05:21:23.190Z,484.00
2023-05-12T05:22:22.761Z,468.00
2023-05-12T05:23:22.681Z,520.00
2023-05-12T05:24:22.605Z,560.00
2023-05-12T05:25:22.524Z,588.00
2023-05-12T05:26:22.445Z,512.00
2023-05-12T05:27:22.369Z,460.00
2023-05-12T05:28:22.292Z,500.00
2023-05-12T05:29:22.208Z,604.00
2023-05-12T05:30:22.132Z,608.00
2023-05-12T05:31:22.132Z,696.00
2023-05-12T05:32:22.046Z,764.00
2023-05-12T05:33:21.888Z,764.00
2023-05-12T05:34:21.900Z,736.00
2023-05-12T05:35:22.017Z,612.00
2023-05-12T05:36:21.657Z,704.00
2023-05-12T05:37:21.574Z,696.00
2023-05-12T05:38:21.496Z,648.00
2023-05-12T05:39:21.415Z,668.00
2023-05-12T05:40:21.338Z,732.00
2023-05-12T05:41:21.254Z,748.00
2023-05-12T05:42:21.178Z,724.00
2023-05-12T05:43:21.102Z,756.00
2023-05-12T05:44:21.024Z,920.00
2023-05-12T05:45:21.110Z,1136.00
2023-05-12T05:46:20.904Z,1124.00
2023-05-12T05:47:20.802Z,968.00
2023-05-12T05:48:20.707Z,860.00
2023-05-12T05:49:20.620Z,684.00
2023-05-12T05:50:20.578Z,748.00
2023-05-12T05:51:20.468Z,864.00
2023-05-12T05:52:20.391Z,868.00
2023-05-12T05:53:20.317Z,868.00
2023-05-12T05:54:20.228Z,860.00
2023-05-12T05:55:20.571Z,1088.00
2023-05-12T05:56:20.073Z,1028.00
2023-05-12T05:57:20.139Z,1004.00
2023-05-12T05:58:19.908Z,904.00
2023-05-12T05:59:19.834Z,788.00
2023-05-12T06:00:19.750Z,704.00
2023-05-12T06:01:19.677Z,808.00
2023-05-12T06:02:19.638Z,1000.00
2023-05-12T06:03:19.579Z,1048.00
2023-05-12T06:04:19.511Z,1292.00
2023-05-12T06:05:19.690Z,1096.00
2023-05-12T06:06:19.608Z,864.00
2023-05-12T06:07:21.012Z,1016.00
2023-05-12T06:08:19.123Z,812.00
2023-05-12T06:09:19.057Z,828.00
2023-05-12T06:10:19.192Z,980.00
2023-05-12T06:11:18.880Z,1344.00
2023-05-12T06:12:18.807Z,1832.00
2023-05-12T06:13:18.726Z,1796.00
2023-05-12T06:14:18.645Z,2168.00
2023-05-12T06:15:19.056Z,2244.00
2023-05-12T06:16:18.556Z,2392.00
2023-05-12T06:17:18.480Z,2240.00
2023-05-12T06:18:18.326Z,2560.00
2023-05-12T06:19:18.261Z,2312.00
2023-05-12T06:20:18.171Z,2916.00
2023-05-12T06:21:18.088Z,3600.00
2023-05-12T06:22:18.448Z,3984.00
2023-05-12T06:23:17.928Z,4284.00
2023-05-12T06:24:17.849Z,4504.00
2023-05-12T06:25:18.302Z,4608.00
2023-05-12T06:26:17.691Z,4608.00
2023-05-12T06:27:17.610Z,4648.00
2023-05-12T06:28:17.541Z,4636.00
2023-05-12T06:29:17.453Z,4644.00
2023-05-12T06:30:17.380Z,4736.00
2023-05-12T06:31:17.314Z,4600.00
2023-05-12T06:32:17.254Z,4464.00
2023-05-12T06:33:17.143Z,4580.00
2023-05-12T06:34:17.061Z,4536.00
2023-05-12T06:35:16.988Z,4436.00
2023-05-12T06:36:16.917Z,4440.00
2023-05-12T06:37:16.875Z,3892.00
2023-05-12T06:38:16.809Z,4404.00
2023-05-12T06:39:16.670Z,4188.00
2023-05-12T06:40:16.602Z,4156.00
2023-05-12T06:41:16.516Z,4220.00
2023-05-12T06:42:16.447Z,4256.00
2023-05-12T06:43:16.362Z,3940.00
2023-05-12T06:44:16.284Z,3544.00
2023-05-12T06:45:16.218Z,3888.00
2023-05-12T06:46:16.164Z,3984.00
2023-05-12T06:47:16.047Z,3916.00
2023-05-12T06:48:15.966Z,3960.00
2023-05-12T06:49:15.899Z,3932.00
2023-05-12T06:50:15.820Z,3916.00
2023-05-12T06:51:15.737Z,3892.00
2023-05-12T06:52:15.658Z,3836.00
2023-05-12T06:53:15.579Z,3772.00
2023-05-12T06:54:15.528Z,3680.00
2023-05-12T06:55:15.422Z,3604.00
2023-05-12T06:56:15.346Z,3448.00
2023-05-12T06:57:15.268Z,3400.00
2023-05-12T06:58:15.217Z,3380.00
2023-05-12T06:59:15.105Z,3480.00
2023-05-12T07:00:15.028Z,3544.00
2023-05-12T07:01:14.984Z,3604.00
2023-05-12T07:02:15.073Z,3632.00
2023-05-12T07:03:14.863Z,3580.00
2023-05-12T07:04:14.888Z,3620.00
2023-05-12T07:05:14.638Z,3296.00
2023-05-12T07:06:14.590Z,2872.00
2023-05-12T07:07:14.480Z,3144.00
2023-05-12T07:08:14.397Z,3496.00
2023-05-12T07:09:14.352Z,3404.00
2023-05-12T07:10:14.382Z,3804.00
2023-05-12T07:11:14.165Z,3840.00
2023-05-12T07:12:14.091Z,3916.00
2023-05-12T07:13:14.004Z,4240.00
2023-05-12T07:14:13.929Z,4028.00
2023-05-12T07:15:13.853Z,4028.00
2023-05-12T07:16:13.859Z,3912.00
2023-05-12T07:17:13.689Z,3788.00
2023-05-12T07:18:13.617Z,3924.00
2023-05-12T07:19:13.588Z,4432.00
2023-05-12T07:20:13.457Z,4372.00
2023-05-12T07:21:13.374Z,4544.00
2023-05-12T07:22:13.312Z,4328.00
2023-05-12T07:23:13.220Z,3892.00
2023-05-12T07:24:13.156Z,3848.00
2023-05-12T07:25:13.099Z,3560.00
2023-05-12T07:26:13.076Z,3060.00
2023-05-12T07:27:12.913Z,3100.00
2023-05-12T07:28:12.836Z,2588.00
2023-05-12T07:29:13.931Z,2176.00
2023-05-12T07:30:12.677Z,1956.00
2023-05-12T07:31:12.631Z,2412.00
2023-05-12T07:32:12.820Z,2632.00
2023-05-12T07:33:12.446Z,2244.00
2023-05-12T07:34:12.362Z,2016.00
2023-05-12T07:35:12.291Z,2716.00
2023-05-12T07:36:12.211Z,3152.00
2023-05-12T07:37:12.141Z,4108.00
2023-05-12T07:38:12.059Z,4176.00
2023-05-12T07:39:11.977Z,4048.00
2023-05-12T07:40:11.902Z,4336.00
2023-05-12T07:41:11.822Z,4684.00
2023-05-12T07:42:11.918Z,4828.00
2023-05-12T07:43:11.672Z,5052.00
2023-05-12T07:44:11.607Z,5520.00
2023-05-12T07:45:11.510Z,5824.00
2023-05-12T07:46:11.585Z,6152.00
2023-05-12T07:47:11.407Z,6340.00
2023-05-12T07:48:11.571Z,5552.00
2023-05-12T07:49:11.201Z,4012.00
2023-05-12T07:50:11.133Z,3920.00
2023-05-12T07:51:11.046Z,5072.00
2023-05-12T07:52:10.973Z,5276.00
2023-05-12T07:53:10.891Z,5312.00
2023-05-12T07:54:10.822Z,5376.00
2023-05-12T07:55:10.736Z,5004.00
2023-05-12T07:56:10.662Z,5428.00
2023-05-12T07:57:10.581Z,5512.00
2023-05-12T07:58:10.602Z,5468.00
2023-05-12T07:59:10.427Z,5500.00
2023-05-12T08:00:10.354Z,5416.00
2023-05-12T08:01:10.281Z,4780.00
2023-05-12T08:02:10.247Z,4052.00
2023-05-12T08:03:10.602Z,3876.00
2023-05-12T08:04:10.160Z,3780.00
2023-05-12T08:05:09.963Z,3796.00
2023-05-12T08:06:09.891Z,3892.00
2023-05-12T08:07:10.258Z,2972.00
2023-05-12T08:08:09.732Z,3940.00
2023-05-12T08:09:09.665Z,4784.00
2023-05-12T08:10:09.589Z,4552.00
2023-05-12T08:11:09.506Z,3652.00
2023-05-12T08:12:09.439Z,3172.00
2023-05-12T08:13:09.342Z,3236.00
2023-05-12T08:14:09.416Z,5420.00
2023-05-12T08:15:09.187Z,5468.00
2023-05-12T08:16:09.113Z,4472.00
2023-05-12T08:17:09.069Z,4304.00
2023-05-12T08:18:09.037Z,5228.00
2023-05-12T08:19:08.982Z,5628.00
2023-05-12T08:20:08.953Z,4908.00
2023-05-12T08:21:08.734Z,5392.00
2023-05-12T08:22:08.653Z,5188.00
2023-05-12T08:23:08.571Z,5864.00
2023-05-12T08:24:08.493Z,5876.00
2023-05-12T08:25:10.341Z,6872.00
2023-05-12T08:26:08.337Z,7592.00
2023-05-12T08:27:08.264Z,7328.00
2023-05-12T08:28:08.229Z,8516.00
2023-05-12T08:29:08.118Z,8724.00
2023-05-12T08:30:08.352Z,9064.00
2023-05-12T08:31:07.970Z,9464.00
2023-05-12T08:32:07.878Z,9448.00
2023-05-12T08:33:07.889Z,9356.00
2023-05-12T08:34:10.901Z,9816.00
2023-05-12T08:35:07.656Z,9884.00
2023-05-12T08:36:07.600Z,9236.00
2023-05-12T08:37:07.492Z,8232.00
2023-05-12T08:38:07.425Z,8132.00
2023-05-12T08:39:07.338Z,8280.00
2023-05-12T08:40:07.264Z,7224.00
2023-05-12T08:41:07.192Z,8104.00
2023-05-12T08:42:07.116Z,8992.00
2023-05-12T08:43:07.041Z,8864.00
2023-05-12T08:44:09.631Z,8744.00
2023-05-12T08:45:06.882Z,9740.00
2023-05-12T08:46:07.039Z,9468.00
2023-05-12T08:47:06.729Z,9632.00
2023-05-12T08:48:06.705Z,8852.00
2023-05-12T08:49:06.571Z,10404.00
2023-05-12T08:50:06.499Z,10760.00
2023-05-12T08:51:06.420Z,10124.00
2023-05-12T08:52:06.344Z,9456.00
2023-05-12T08:53:06.281Z,9452.00
2023-05-12T08:54:06.194Z,9348.00
2023-05-12T08:55:06.116Z,8952.00
2023-05-12T08:57:09.153Z,9344.00
2023-05-12T08:58:06.759Z,8296.00
2023-05-12T08:59:05.817Z,8376.00
2023-05-12T09:00:05.745Z,7372.00
2023-05-12T09:01:05.692Z,7832.00
2023-05-12T09:02:05.919Z,8240.00
2023-05-12T09:03:05.530Z,8316.00
2023-05-12T09:04:05.478Z,7196.00
2023-05-12T09:05:05.357Z,6592.00
2023-05-12T09:06:05.283Z,5520.00
2023-05-12T09:07:05.207Z,4908.00
2023-05-12T09:08:05.180Z,4988.00
2023-05-12T09:09:05.406Z,4768.00
2023-05-12T09:10:05.020Z,5200.00
2023-05-12T09:11:04.912Z,6284.00
2023-05-12T09:12:04.827Z,5004.00
2023-05-12T09:13:04.756Z,4556.00
2023-05-12T09:14:04.694Z,4068.00
2023-05-12T09:15:04.597Z,5128.00
2023-05-12T09:16:04.569Z,5884.00
2023-05-12T09:17:04.453Z,4312.00
2023-05-12T09:18:04.418Z,4556.00
2023-05-12T09:19:06.890Z,4784.00
2023-05-12T09:20:04.246Z,4608.00
2023-05-12T09:21:04.146Z,4020.00
2023-05-12T09:22:04.062Z,3576.00
2023-05-12T09:23:03.987Z,3348.00
2023-05-12T09:24:03.909Z,3424.00
2023-05-12T09:25:03.861Z,2984.00
2023-05-12T09:26:03.759Z,2824.00
2023-05-12T09:27:03.698Z,2660.00
2023-05-12T09:28:03.606Z,2800.00
2023-05-12T09:29:03.526Z,2968.00
2023-05-12T09:30:03.460Z,3296.00
2023-05-12T09:31:03.426Z,3588.00
2023-05-12T09:32:03.628Z,4320.00
2023-05-12T09:33:03.323Z,5436.00
2023-05-12T09:34:03.265Z,6880.00
2023-05-12T09:35:03.371Z,7512.00
2023-05-12T09:36:03.000Z,8708.00
2023-05-12T09:37:02.909Z,7684.00
2023-05-12T09:38:02.835Z,8956.00
2023-05-12T09:39:02.758Z,8516.00
2023-05-12T09:40:02.686Z,8716.00
2023-05-12T09:41:02.602Z,8680.00
2023-05-12T09:42:02.538Z,8444.00
2023-05-12T09:43:02.451Z,8860.00
2023-05-12T09:44:02.380Z,8952.00
2023-05-12T09:45:02.294Z,10364.00
2023-05-12T09:46:02.395Z,10168.00
2023-05-12T09:47:02.141Z,9604.00
2023-05-12T09:48:02.224Z,8348.00
2023-05-12T09:49:02.007Z,5964.00
2023-05-12T09:50:01.939Z,4576.00
2023-05-12T09:51:01.849Z,4332.00
2023-05-12T09:52:01.763Z,5600.00
2023-05-12T09:53:01.688Z,5488.00
2023-05-12T09:54:01.633Z,4504.00
2023-05-12T09:55:01.535Z,3700.00
2023-05-12T09:56:01.465Z,4416.00
2023-05-12T09:57:01.396Z,4772.00
2023-05-12T09:58:01.350Z,4680.00
2023-05-12T09:59:01.528Z,5104.00
2023-05-12T10:00:01.150Z,7220.00
2023-05-12T10:02:01.077Z,8160.00
2023-05-12T10:03:00.928Z,6196.00
2023-05-12T10:04:00.853Z,6996.00
2023-05-12T10:05:00.828Z,7628.00
2023-05-12T10:06:00.792Z,6924.00
2023-05-12T10:07:00.611Z,6080.00
2023-05-12T10:08:00.741Z,5064.00
2023-05-12T10:09:00.456Z,4480.00
2023-05-12T10:10:00.396Z,3908.00
2023-05-12T10:11:00.707Z,3528.00
2023-05-12T10:12:00.231Z,3564.00
2023-05-12T10:13:00.166Z,3620.00
2023-05-12T10:14:00.329Z,3916.00
2023-05-12T10:15:00.005Z,3980.00
2023-05-12T10:15:59.933Z,4056.00
2023-05-12T10:16:59.933Z,4080.00
2023-05-12T10:17:59.809Z,4216.00
2023-05-12T10:18:59.775Z,4376.00
2023-05-12T10:19:59.627Z,4604.00
2023-05-12T10:20:59.549Z,4340.00
2023-05-12T10:21:59.521Z,4284.00
2023-05-12T10:22:59.396Z,4852.00
2023-05-12T10:23:59.317Z,5320.00
2023-05-12T10:24:59.240Z,5624.00
2023-05-12T10:25:59.170Z,5860.00
2023-05-12T10:26:59.111Z,6208.00
2023-05-12T10:27:59.020Z,6704.00
2023-05-12T10:28:58.939Z,8240.00
2023-05-12T10:29:58.866Z,8832.00
2023-05-12T10:30:58.995Z,8928.00
2023-05-12T10:31:58.730Z,9128.00
2023-05-12T10:32:58.660Z,9128.00
2023-05-12T10:33:58.559Z,5376.00
2023-05-12T10:34:58.539Z,3220.00
2023-05-12T10:35:58.408Z,1604.00
2023-05-12T10:36:58.642Z,1496.00
2023-05-12T10:37:58.288Z,1936.00
2023-05-12T10:38:58.182Z,1748.00
2023-05-12T10:39:58.107Z,1292.00
2023-05-12T10:40:58.059Z,1456.00
2023-05-12T10:41:57.957Z,1996.00
2023-05-12T10:42:57.879Z,1388.00
2023-05-12T10:43:57.803Z,980.00
2023-05-12T10:44:58.024Z,920.00
2023-05-12T10:45:57.660Z,900.00
2023-05-12T10:46:57.576Z,780.00
2023-05-12T10:47:57.548Z,696.00
2023-05-12T10:48:57.435Z,664.00
2023-05-12T10:49:57.350Z,656.00
2023-05-12T10:50:57.268Z,696.00
2023-05-12T10:51:57.189Z,804.00
2023-05-12T10:52:57.115Z,844.00
2023-05-12T10:53:57.096Z,892.00
2023-05-12T10:54:56.982Z,964.00
2023-05-12T10:55:57.117Z,1028.00
2023-05-12T10:56:56.998Z,1016.00
2023-05-12T10:57:57.073Z,1028.00
2023-05-12T10:58:56.991Z,1048.00
2023-05-12T10:59:56.967Z,1104.00
2023-05-12T11:00:57.105Z,1148.00
2023-05-12T11:01:56.854Z,1232.00
2023-05-12T11:03:00.461Z,1320.00
2023-05-12T11:03:56.358Z,1412.00
2023-05-12T11:04:56.399Z,1520.00
2023-05-12T11:05:56.284Z,1584.00
2023-05-12T11:06:56.240Z,1528.00
2023-05-12T11:07:57.131Z,1468.00
2023-05-12T11:08:57.050Z,1440.00
2023-05-12T11:09:59.371Z,1412.00
2023-05-12T11:10:55.781Z,1480.00
2023-05-12T11:11:56.562Z,1564.00
2023-05-12T11:12:55.570Z,1672.00
2023-05-12T11:13:55.496Z,1868.00
2023-05-12T11:14:55.428Z,2068.00
2023-05-12T11:15:55.655Z,2160.00
2023-05-12T11:16:55.257Z,2292.00
2023-05-12T11:17:55.207Z,2504.00
2023-05-12T11:18:55.166Z,2796.00
2023-05-12T11:19:55.040Z,3096.00
2023-05-12T11:20:55.200Z,3376.00
2023-05-12T11:21:55.069Z,3836.00
2023-05-12T11:22:54.841Z,4228.00
2023-05-12T11:23:55.019Z,4480.00
2023-05-12T11:24:54.714Z,4656.00
2023-05-12T11:25:54.673Z,5048.00
2023-05-12T11:26:54.581Z,5108.00
2023-05-12T11:27:54.406Z,4948.00
2023-05-12T11:28:54.325Z,4832.00
2023-05-12T11:29:54.248Z,5004.00
2023-05-12T11:30:55.277Z,5412.00
2023-05-12T11:31:54.123Z,5284.00
2023-05-12T11:32:54.034Z,5032.00
2023-05-12T11:34:04.509Z,5200.00
2023-05-12T11:34:53.887Z,5412.00
2023-05-12T11:35:53.793Z,5956.00
2023-05-12T11:36:53.710Z,6616.00
2023-05-12T11:37:53.633Z,7296.00
2023-05-12T11:38:53.557Z,7980.00
2023-05-12T11:39:53.480Z,8412.00
2023-05-12T11:40:53.405Z,9040.00
2023-05-12T11:42:02.162Z,9968.00
2023-05-12T11:42:53.301Z,10392.00
2023-05-12T11:43:53.187Z,9964.00
2023-05-12T11:44:53.448Z,9292.00
2023-05-12T11:45:53.027Z,7608.00
2023-05-12T11:46:52.948Z,5492.00
2023-05-12T11:47:52.924Z,3728.00
2023-05-12T11:48:52.798Z,2480.00
2023-05-12T11:49:53.014Z,2324.00
2023-05-12T11:50:52.643Z,3532.00
2023-05-12T11:51:52.568Z,4900.00
2023-05-12T11:52:52.501Z,5316.00
2023-05-12T11:53:52.415Z,4780.00
2023-05-12T11:54:52.411Z,4324.00
2023-05-12T11:55:52.296Z,3616.00
2023-05-12T11:56:52.440Z,2772.00
2023-05-12T11:57:52.166Z,2384.00
2023-05-12T11:58:52.041Z,2376.00
2023-05-12T11:59:51.963Z,2456.00
2023-05-12T12:00:51.891Z,2464.00
2023-05-12T12:01:51.959Z,2476.00
2023-05-12T12:02:51.855Z,2432.00
2023-05-12T12:03:51.763Z,2504.00
2023-05-12T12:04:51.636Z,2652.00
2023-05-12T12:05:51.505Z,2676.00
2023-05-12T12:06:51.439Z,2696.00
2023-05-12T12:07:51.359Z,2692.00
2023-05-12T12:08:51.276Z,2844.00
2023-05-12T12:09:51.197Z,3260.00
2023-05-12T12:10:51.126Z,3960.00
2023-05-12T12:11:51.047Z,4744.00
2023-05-12T12:12:50.969Z,5400.00
2023-05-12T12:13:50.931Z,6160.00
2023-05-12T12:14:50.817Z,5424.00
2023-05-12T12:15:51.171Z,3372.00
2023-05-12T12:16:50.665Z,1920.00
2023-05-12T12:17:50.627Z,1396.00
2023-05-12T12:18:50.613Z,1220.00
2023-05-12T12:19:50.436Z,864.00
2023-05-12T12:20:50.364Z,1004.00
2023-05-12T12:21:50.285Z,1020.00
2023-05-12T12:22:50.206Z,1056.00
2023-05-12T12:23:51.674Z,964.00
2023-05-12T12:24:50.256Z,748.00
2023-05-12T12:25:49.977Z,1048.00
2023-05-12T12:26:49.897Z,1396.00
2023-05-12T12:27:49.825Z,2092.00
2023-05-12T12:28:49.775Z,5232.00
2023-05-12T12:29:49.696Z,4892.00
2023-05-12T12:30:49.600Z,2980.00
2023-05-12T12:31:49.605Z,2000.00